sensor_id;sensor_type;location;lat;lon;timestamp;P1;durP1;ratioP1;P2;durP2;ratioP2
17347;SDS011;8791;50.876;4.342;2023-03-14T00:01:18;6.80;;;1.53;;
17347;SDS011;8791;50.876;4.342;2023-03-14T00:03:46;7.50;;;1.40;;
17347;SDS011;8791;50.876;4.342;2023-03-14T00:06:14;9.90;;;1.77;;
17347;SDS011;8791;50.876;4.342;2023-03-14T00:08:41;6.37;;;1.60;;
17347;SDS011;8791;50.876;4.342;2023-03-14T00:11:10;8.27;;;1.67;;
17347;SDS011;8791;50.876;4.342;2023-03-14T00:13:39;6.13;;;1.70;;
17347;SDS011;8791;50.876;4.342;2023-03-14T00:16:07;6.60;;;1.90;;
17347;SDS011;8791;50.876;4.342;2023-03-14T00:18:35;8.77;;;1.87;;
17347;SDS011;8791;50.876;4.342;2023-03-14T00:21:02;4.43;;;1.77;;
17347;SDS011;8791;50.876;4.342;2023-03-14T00:23:31;8.20;;;2.03;;
17347;SDS011;8791;50.876;4.342;2023-03-14T00:25:59;8.47;;;1.47;;
17347;SDS011;8791;50.876;4.342;2023-03-14T00:28:26;6.93;;;1.90;;
17347;SDS011;8791;50.876;4.342;2023-03-14T00:30:54;11.07;;;1.90;;
17347;SDS011;8791;50.876;4.342;2023-03-14T00:33:22;14.90;;;1.83;;
17347;SDS011;8791;50.876;4.342;2023-03-14T00:35:53;4.63;;;1.60;;
17347;SDS011;8791;50.876;4.342;2023-03-14T00:38:21;7.77;;;1.80;;
17347;SDS011;8791;50.876;4.342;2023-03-14T00:40:49;6.80;;;1.80;;
17347;SDS011;8791;50.876;4.342;2023-03-14T00:43:17;14.00;;;2.17;;
17347;SDS011;8791;50.876;4.342;2023-03-14T00:45:46;10.33;;;1.77;;
17347;SDS011;8791;50.876;4.342;2023-03-14T00:48:14;9.87;;;2.80;;
17347;SDS011;8791;50.876;4.342;2023-03-14T00:50:41;11.43;;;2.43;;
17347;SDS011;8791;50.876;4.342;2023-03-14T00:53:08;9.77;;;2.07;;
17347;SDS011;8791;50.876;4.342;2023-03-14T00:55:36;12.93;;;2.43;;
17347;SDS011;8791;50.876;4.342;2023-03-14T00:58:03;7.57;;;1.67;;
17347;SDS011;8791;50.876;4.342;2023-03-14T01:00:30;9.77;;;2.30;;
17347;SDS011;8791;50.876;4.342;2023-03-14T01:02:57;11.13;;;1.73;;
17347;SDS011;8791;50.876;4.342;2023-03-14T01:05:25;7.37;;;2.03;;
17347;SDS011;8791;50.876;4.342;2023-03-14T01:07:53;7.60;;;1.80;;
17347;SDS011;8791;50.876;4.342;2023-03-14T01:10:20;11.30;;;1.97;;
17347;SDS011;8791;50.876;4.342;2023-03-14T01:12:46;11.17;;;2.70;;
17347;SDS011;8791;50.876;4.342;2023-03-14T01:15:13;12.13;;;2.10;;
17347;SDS011;8791;50.876;4.342;2023-03-14T01:17:40;11.20;;;1.87;;
17347;SDS011;8791;50.876;4.342;2023-03-14T01:20:09;7.07;;;1.70;;
17347;SDS011;8791;50.876;4.342;2023-03-14T01:22:39;10.13;;;2.20;;
17347;SDS011;8791;50.876;4.342;2023-03-14T01:25:07;8.33;;;2.17;;
17347;SDS011;8791;50.876;4.342;2023-03-14T01:27:35;11.53;;;1.77;;
17347;SDS011;8791;50.876;4.342;2023-03-14T01:30:02;20.60;;;2.10;;
17347;SDS011;8791;50.876;4.342;2023-03-14T01:32:29;8.47;;;1.77;;
17347;SDS011;8791;50.876;4.342;2023-03-14T01:34:56;14.23;;;2.57;;
17347;SDS011;8791;50.876;4.342;2023-03-14T01:37:22;11.37;;;2.27;;
17347;SDS011;8791;50.876;4.342;2023-03-14T01:39:51;7.67;;;2.13;;
17347;SDS011;8791;50.876;4.342;2023-03-14T01:42:17;7.03;;;1.67;;
17347;SDS011;8791;50.876;4.342;2023-03-14T01:44:48;9.47;;;2.10;;
17347;SDS011;8791;50.876;4.342;2023-03-14T01:47:16;9.43;;;2.10;;
17347;SDS011;8791;50.876;4.342;2023-03-14T01:49:43;7.90;;;1.60;;
17347;SDS011;8791;50.876;4.342;2023-03-14T01:52:12;7.20;;;1.70;;
17347;SDS011;8791;50.876;4.342;2023-03-14T01:54:41;6.27;;;1.33;;
17347;SDS011;8791;50.876;4.342;2023-03-14T01:57:13;4.53;;;1.70;;
17347;SDS011;8791;50.876;4.342;2023-03-14T01:59:43;6.73;;;1.43;;
17347;SDS011;8791;50.876;4.342;2023-03-14T02:02:13;9.23;;;1.77;;
17347;SDS011;8791;50.876;4.342;2023-03-14T02:04:41;6.10;;;1.37;;
17347;SDS011;8791;50.876;4.342;2023-03-14T02:07:10;7.57;;;1.47;;
17347;SDS011;8791;50.876;4.342;2023-03-14T02:09:39;7.33;;;1.80;;
17347;SDS011;8791;50.876;4.342;2023-03-14T02:12:07;6.00;;;1.47;;
17347;SDS011;8791;50.876;4.342;2023-03-14T02:14:36;7.47;;;1.20;;
17347;SDS011;8791;50.876;4.342;2023-03-14T02:17:04;3.67;;;1.07;;
17347;SDS011;8791;50.876;4.342;2023-03-14T02:19:35;4.70;;;1.20;;
17347;SDS011;8791;50.876;4.342;2023-03-14T02:22:15;9.83;;;1.63;;
17347;SDS011;8791;50.876;4.342;2023-03-14T02:24:45;4.83;;;1.83;;
17347;SDS011;8791;50.876;4.342;2023-03-14T02:27:18;7.73;;;1.40;;
17347;SDS011;8791;50.876;4.342;2023-03-14T02:29:48;5.87;;;1.20;;
17347;SDS011;8791;50.876;4.342;2023-03-14T02:32:17;5.17;;;1.23;;
17347;SDS011;8791;50.876;4.342;2023-03-14T02:34:48;3.47;;;1.20;;
17347;SDS011;8791;50.876;4.342;2023-03-14T02:37:18;4.07;;;1.20;;
17347;SDS011;8791;50.876;4.342;2023-03-14T02:39:47;2.73;;;1.50;;
17347;SDS011;8791;50.876;4.342;2023-03-14T02:42:14;5.90;;;1.50;;
17347;SDS011;8791;50.876;4.342;2023-03-14T02:44:53;4.43;;;1.10;;
17347;SDS011;8791;50.876;4.342;2023-03-14T02:47:22;6.87;;;1.23;;
17347;SDS011;8791;50.876;4.342;2023-03-14T02:49:55;7.27;;;1.17;;
17347;SDS011;8791;50.876;4.342;2023-03-14T02:52:27;2.93;;;1.40;;
17347;SDS011;8791;50.876;4.342;2023-03-14T02:54:54;7.33;;;2.30;;
17347;SDS011;8791;50.876;4.342;2023-03-14T02:57:20;9.80;;;2.13;;
17347;SDS011;8791;50.876;4.342;2023-03-14T02:59:47;3.97;;;2.10;;
17347;SDS011;8791;50.876;4.342;2023-03-14T03:02:15;5.20;;;2.30;;
17347;SDS011;8791;50.876;4.342;2023-03-14T03:04:42;7.87;;;2.80;;
17347;SDS011;8791;50.876;4.342;2023-03-14T03:07:09;7.87;;;2.83;;
17347;SDS011;8791;50.876;4.342;2023-03-14T03:09:36;7.07;;;2.80;;
17347;SDS011;8791;50.876;4.342;2023-03-14T03:12:03;8.70;;;4.00;;
17347;SDS011;8791;50.876;4.342;2023-03-14T03:14:30;11.20;;;5.77;;
17347;SDS011;8791;50.876;4.342;2023-03-14T03:16:57;16.23;;;6.87;;
17347;SDS011;8791;50.876;4.342;2023-03-14T03:19:25;19.37;;;11.40;;
17347;SDS011;8791;50.876;4.342;2023-03-14T03:21:52;25.80;;;13.47;;
17347;SDS011;8791;50.876;4.342;2023-03-14T03:24:18;20.70;;;9.50;;
17347;SDS011;8791;50.876;4.342;2023-03-14T03:26:45;13.03;;;6.30;;
17347;SDS011;8791;50.876;4.342;2023-03-14T03:29:12;13.10;;;4.17;;
17347;SDS011;8791;50.876;4.342;2023-03-14T03:31:39;14.57;;;3.57;;
17347;SDS011;8791;50.876;4.342;2023-03-14T03:34:06;12.17;;;3.40;;
17347;SDS011;8791;50.876;4.342;2023-03-14T03:36:34;13.77;;;3.90;;
17347;SDS011;8791;50.876;4.342;2023-03-14T03:39:01;14.43;;;3.80;;
17347;SDS011;8791;50.876;4.342;2023-03-14T03:41:28;11.37;;;3.43;;
17347;SDS011;8791;50.876;4.342;2023-03-14T03:43:55;11.23;;;3.87;;
17347;SDS011;8791;50.876;4.342;2023-03-14T03:46:22;18.27;;;3.73;;
17347;SDS011;8791;50.876;4.342;2023-03-14T03:48:53;14.33;;;3.33;;
17347;SDS011;8791;50.876;4.342;2023-03-14T03:51:20;10.07;;;3.00;;
17347;SDS011;8791;50.876;4.342;2023-03-14T03:53:49;15.17;;;3.70;;
17347;SDS011;8791;50.876;4.342;2023-03-14T03:56:16;12.53;;;3.70;;
17347;SDS011;8791;50.876;4.342;2023-03-14T03:58:42;11.53;;;4.03;;
17347;SDS011;8791;50.876;4.342;2023-03-14T04:01:09;13.83;;;4.60;;
17347;SDS011;8791;50.876;4.342;2023-03-14T04:03:36;19.53;;;4.03;;
17347;SDS011;8791;50.876;4.342;2023-03-14T04:06:07;13.83;;;4.10;;
17347;SDS011;8791;50.876;4.342;2023-03-14T04:08:36;11.63;;;4.57;;
17347;SDS011;8791;50.876;4.342;2023-03-14T04:11:04;9.67;;;3.87;;
17347;SDS011;8791;50.876;4.342;2023-03-14T04:13:31;11.23;;;4.40;;
17347;SDS011;8791;50.876;4.342;2023-03-14T04:15:58;14.77;;;3.57;;
17347;SDS011;8791;50.876;4.342;2023-03-14T04:18:25;8.37;;;2.93;;
17347;SDS011;8791;50.876;4.342;2023-03-14T04:20:54;10.27;;;4.00;;
17347;SDS011;8791;50.876;4.342;2023-03-14T04:23:22;12.13;;;3.27;;
17347;SDS011;8791;50.876;4.342;2023-03-14T04:25:50;6.33;;;3.40;;
17347;SDS011;8791;50.876;4.342;2023-03-14T04:28:18;7.90;;;2.67;;
17347;SDS011;8791;50.876;4.342;2023-03-14T04:30:45;10.83;;;3.00;;
17347;SDS011;8791;50.876;4.342;2023-03-14T04:33:12;6.90;;;2.30;;
17347;SDS011;8791;50.876;4.342;2023-03-14T04:35:42;14.23;;;2.63;;
17347;SDS011;8791;50.876;4.342;2023-03-14T04:38:09;3.37;;;1.83;;
17347;SDS011;8791;50.876;4.342;2023-03-14T04:40:36;6.57;;;1.70;;
17347;SDS011;8791;50.876;4.342;2023-03-14T04:43:03;7.13;;;1.90;;
17347;SDS011;8791;50.876;4.342;2023-03-14T04:45:31;4.43;;;2.07;;
17347;SDS011;8791;50.876;4.342;2023-03-14T04:47:58;4.33;;;2.00;;
17347;SDS011;8791;50.876;4.342;2023-03-14T04:50:25;3.37;;;1.70;;
17347;SDS011;8791;50.876;4.342;2023-03-14T04:52:52;6.17;;;1.60;;
17347;SDS011;8791;50.876;4.342;2023-03-14T04:55:19;5.03;;;1.90;;
17347;SDS011;8791;50.876;4.342;2023-03-14T04:57:45;3.03;;;1.80;;
17347;SDS011;8791;50.876;4.342;2023-03-14T05:00:12;4.33;;;2.20;;
17347;SDS011;8791;50.876;4.342;2023-03-14T05:02:41;4.13;;;2.00;;
17347;SDS011;8791;50.876;4.342;2023-03-14T05:05:08;5.17;;;2.10;;
17347;SDS011;8791;50.876;4.342;2023-03-14T05:07:34;4.43;;;1.90;;
17347;SDS011;8791;50.876;4.342;2023-03-14T05:10:01;5.03;;;2.27;;
17347;SDS011;8791;50.876;4.342;2023-03-14T05:12:28;4.77;;;2.03;;
17347;SDS011;8791;50.876;4.342;2023-03-14T05:14:55;5.77;;;2.40;;
17347;SDS011;8791;50.876;4.342;2023-03-14T05:17:22;7.73;;;2.43;;
17347;SDS011;8791;50.876;4.342;2023-03-14T05:19:50;4.40;;;2.40;;
17347;SDS011;8791;50.876;4.342;2023-03-14T05:22:17;4.67;;;2.57;;
17347;SDS011;8791;50.876;4.342;2023-03-14T05:24:44;6.63;;;2.40;;
17347;SDS011;8791;50.876;4.342;2023-03-14T05:27:11;6.83;;;2.40;;
17347;SDS011;8791;50.876;4.342;2023-03-14T05:29:37;7.33;;;2.70;;
17347;SDS011;8791;50.876;4.342;2023-03-14T05:32:04;2.30;;;1.90;;
17347;SDS011;8791;50.876;4.342;2023-03-14T05:34:31;5.97;;;2.43;;
17347;SDS011;8791;50.876;4.342;2023-03-14T05:36:59;5.17;;;2.17;;
17347;SDS011;8791;50.876;4.342;2023-03-14T05:39:26;5.87;;;2.70;;
17347;SDS011;8791;50.876;4.342;2023-03-14T05:41:53;4.17;;;2.30;;
17347;SDS011;8791;50.876;4.342;2023-03-14T05:44:21;2.93;;;2.30;;
17347;SDS011;8791;50.876;4.342;2023-03-14T05:46:47;3.60;;;2.60;;
17347;SDS011;8791;50.876;4.342;2023-03-14T05:49:14;3.27;;;2.60;;
17347;SDS011;8791;50.876;4.342;2023-03-14T05:51:41;4.87;;;3.03;;
17347;SDS011;8791;50.876;4.342;2023-03-14T05:54:09;5.33;;;2.90;;
17347;SDS011;8791;50.876;4.342;2023-03-14T05:56:36;5.83;;;3.07;;
17347;SDS011;8791;50.876;4.342;2023-03-14T05:59:03;5.07;;;3.00;;
17347;SDS011;8791;50.876;4.342;2023-03-14T06:01:32;4.50;;;3.00;;
17347;SDS011;8791;50.876;4.342;2023-03-14T06:03:59;2.80;;;2.60;;
17347;SDS011;8791;50.876;4.342;2023-03-14T06:06:26;4.10;;;3.07;;
17347;SDS011;8791;50.876;4.342;2023-03-14T06:08:52;5.47;;;3.10;;
17347;SDS011;8791;50.876;4.342;2023-03-14T06:11:21;8.37;;;3.20;;
17347;SDS011;8791;50.876;4.342;2023-03-14T06:13:47;6.23;;;3.17;;
17347;SDS011;8791;50.876;4.342;2023-03-14T06:16:14;3.70;;;3.17;;
17347;SDS011;8791;50.876;4.342;2023-03-14T06:18:41;6.80;;;3.20;;
17347;SDS011;8791;50.876;4.342;2023-03-14T06:21:08;8.43;;;3.23;;
17347;SDS011;8791;50.876;4.342;2023-03-14T06:23:35;6.20;;;2.80;;
17347;SDS011;8791;50.876;4.342;2023-03-14T06:26:01;4.00;;;2.67;;
17347;SDS011;8791;50.876;4.342;2023-03-14T06:28:30;4.47;;;2.80;;
17347;SDS011;8791;50.876;4.342;2023-03-14T06:30:58;3.70;;;2.53;;
17347;SDS011;8791;50.876;4.342;2023-03-14T06:33:25;5.40;;;2.80;;
17347;SDS011;8791;50.876;4.342;2023-03-14T06:35:52;2.47;;;2.23;;
17347;SDS011;8791;50.876;4.342;2023-03-14T06:38:19;4.30;;;2.63;;
17347;SDS011;8791;50.876;4.342;2023-03-14T06:40:46;3.83;;;2.70;;
17347;SDS011;8791;50.876;4.342;2023-03-14T06:43:12;4.37;;;3.30;;
17347;SDS011;8791;50.876;4.342;2023-03-14T06:45:41;4.03;;;2.90;;
17347;SDS011;8791;50.876;4.342;2023-03-14T06:48:07;2.47;;;2.00;;
17347;SDS011;8791;50.876;4.342;2023-03-14T06:50:34;3.30;;;2.80;;
17347;SDS011;8791;50.876;4.342;2023-03-14T06:53:02;4.03;;;2.63;;
17347;SDS011;8791;50.876;4.342;2023-03-14T06:55:28;6.20;;;2.87;;
17347;SDS011;8791;50.876;4.342;2023-03-14T06:57:55;3.27;;;2.57;;
17347;SDS011;8791;50.876;4.342;2023-03-14T07:00:22;2.73;;;2.53;;
17347;SDS011;8791;50.876;4.342;2023-03-14T07:02:51;9.93;;;3.30;;
17347;SDS011;8791;50.876;4.342;2023-03-14T07:05:18;11.10;;;10.07;;
17347;SDS011;8791;50.876;4.342;2023-03-14T07:07:44;20.60;;;19.50;;
17347;SDS011;8791;50.876;4.342;2023-03-14T07:10:11;27.90;;;26.13;;
17347;SDS011;8791;50.876;4.342;2023-03-14T07:12:38;27.37;;;25.33;;
17347;SDS011;8791;50.876;4.342;2023-03-14T07:15:05;27.60;;;25.83;;
17347;SDS011;8791;50.876;4.342;2023-03-14T07:17:33;26.77;;;25.17;;
17347;SDS011;8791;50.876;4.342;2023-03-14T07:20:01;26.27;;;24.77;;
17347;SDS011;8791;50.876;4.342;2023-03-14T07:22:29;25.00;;;23.57;;
17347;SDS011;8791;50.876;4.342;2023-03-14T07:24:56;25.77;;;24.17;;
17347;SDS011;8791;50.876;4.342;2023-03-14T07:27:23;24.87;;;23.43;;
17347;SDS011;8791;50.876;4.342;2023-03-14T07:29:50;24.17;;;22.50;;
17347;SDS011;8791;50.876;4.342;2023-03-14T07:32:17;24.30;;;22.80;;
17347;SDS011;8791;50.876;4.342;2023-03-14T07:34:43;26.43;;;24.40;;
17347;SDS011;8791;50.876;4.342;2023-03-14T07:37:12;26.13;;;24.70;;
17347;SDS011;8791;50.876;4.342;2023-03-14T07:39:38;28.33;;;26.10;;
17347;SDS011;8791;50.876;4.342;2023-03-14T07:42:05;27.20;;;25.40;;
17347;SDS011;8791;50.876;4.342;2023-03-14T07:44:32;28.93;;;27.27;;
17347;SDS011;8791;50.876;4.342;2023-03-14T07:46:59;28.03;;;26.33;;
17347;SDS011;8791;50.876;4.342;2023-03-14T07:49:26;26.90;;;25.30;;
17347;SDS011;8791;50.876;4.342;2023-03-14T07:51:53;30.60;;;28.40;;
17347;SDS011;8791;50.876;4.342;2023-03-14T07:54:21;28.40;;;26.50;;
17347;SDS011;8791;50.876;4.342;2023-03-14T07:56:48;27.67;;;26.07;;
17347;SDS011;8791;50.876;4.342;2023-03-14T07:59:15;28.57;;;26.37;;
17347;SDS011;8791;50.876;4.342;2023-03-14T08:01:42;27.93;;;25.83;;
17347;SDS011;8791;50.876;4.342;2023-03-14T08:04:09;29.13;;;26.50;;
17347;SDS011;8791;50.876;4.342;2023-03-14T08:06:35;29.30;;;27.17;;
17347;SDS011;8791;50.876;4.342;2023-03-14T08:09:03;29.50;;;27.27;;
17347;SDS011;8791;50.876;4.342;2023-03-14T08:11:31;30.50;;;28.30;;
17347;SDS011;8791;50.876;4.342;2023-03-14T08:13:58;28.67;;;26.43;;
17347;SDS011;8791;50.876;4.342;2023-03-14T08:16:25;26.33;;;24.60;;
17347;SDS011;8791;50.876;4.342;2023-03-14T08:18:52;24.93;;;23.33;;
17347;SDS011;8791;50.876;4.342;2023-03-14T08:21:19;21.67;;;20.20;;
17347;SDS011;8791;50.876;4.342;2023-03-14T08:23:45;23.10;;;21.90;;
17347;SDS011;8791;50.876;4.342;2023-03-14T08:26:12;25.83;;;24.07;;
17347;SDS011;8791;50.876;4.342;2023-03-14T08:28:40;26.73;;;25.03;;
17347;SDS011;8791;50.876;4.342;2023-03-14T08:31:07;27.23;;;25.47;;
17347;SDS011;8791;50.876;4.342;2023-03-14T08:33:34;28.60;;;26.70;;
17347;SDS011;8791;50.876;4.342;2023-03-14T08:36:01;26.47;;;24.77;;
17347;SDS011;8791;50.876;4.342;2023-03-14T08:38:28;26.90;;;25.13;;
17347;SDS011;8791;50.876;4.342;2023-03-14T08:40:56;27.33;;;25.33;;
17347;SDS011;8791;50.876;4.342;2023-03-14T08:43:24;27.10;;;25.40;;
17347;SDS011;8791;50.876;4.342;2023-03-14T08:45:52;26.77;;;25.40;;
17347;SDS011;8791;50.876;4.342;2023-03-14T08:48:19;27.60;;;25.60;;
17347;SDS011;8791;50.876;4.342;2023-03-14T08:50:46;27.67;;;25.07;;
17347;SDS011;8791;50.876;4.342;2023-03-14T08:53:13;25.80;;;23.90;;
17347;SDS011;8791;50.876;4.342;2023-03-14T08:55:40;26.87;;;24.93;;
17347;SDS011;8791;50.876;4.342;2023-03-14T08:58:07;25.13;;;23.70;;
17347;SDS011;8791;50.876;4.342;2023-03-14T09:00:34;24.83;;;23.20;;
17347;SDS011;8791;50.876;4.342;2023-03-14T09:03:02;23.90;;;22.60;;
17347;SDS011;8791;50.876;4.342;2023-03-14T09:05:32;26.17;;;24.47;;
17347;SDS011;8791;50.876;4.342;2023-03-14T09:07:59;24.47;;;22.63;;
17347;SDS011;8791;50.876;4.342;2023-03-14T09:10:26;24.00;;;22.77;;
17347;SDS011;8791;50.876;4.342;2023-03-14T09:12:53;22.37;;;20.80;;
17347;SDS011;8791;50.876;4.342;2023-03-14T09:15:20;22.80;;;21.43;;
17347;SDS011;8791;50.876;4.342;2023-03-14T09:17:46;28.30;;;26.20;;
17347;SDS011;8791;50.876;4.342;2023-03-14T09:20:15;27.30;;;25.20;;
17347;SDS011;8791;50.876;4.342;2023-03-14T09:22:42;25.30;;;23.20;;
17347;SDS011;8791;50.876;4.342;2023-03-14T09:25:09;27.20;;;24.80;;
17347;SDS011;8791;50.876;4.342;2023-03-14T09:27:36;22.67;;;20.70;;
17347;SDS011;8791;50.876;4.342;2023-03-14T09:30:03;27.13;;;21.40;;
17347;SDS011;8791;50.876;4.342;2023-03-14T09:32:30;22.40;;;20.10;;
17347;SDS011;8791;50.876;4.342;2023-03-14T09:34:57;23.77;;;21.50;;
17347;SDS011;8791;50.876;4.342;2023-03-14T09:37:26;18.87;;;17.53;;
17347;SDS011;8791;50.876;4.342;2023-03-14T09:39:53;20.60;;;18.80;;
17347;SDS011;8791;50.876;4.342;2023-03-14T09:42:21;17.37;;;16.00;;
17347;SDS011;8791;50.876;4.342;2023-03-14T09:44:53;21.30;;;16.23;;
17347;SDS011;8791;50.876;4.342;2023-03-14T09:47:22;16.40;;;14.80;;
17347;SDS011;8791;50.876;4.342;2023-03-14T09:49:49;17.53;;;15.73;;
17347;SDS011;8791;50.876;4.342;2023-03-14T09:52:17;14.70;;;13.40;;
17347;SDS011;8791;50.876;4.342;2023-03-14T09:54:50;12.53;;;11.47;;
17347;SDS011;8791;50.876;4.342;2023-03-14T09:57:19;14.53;;;10.63;;
17347;SDS011;8791;50.876;4.342;2023-03-14T09:59:48;11.03;;;5.83;;
17347;SDS011;8791;50.876;4.342;2023-03-14T10:02:17;8.43;;;7.23;;
17347;SDS011;8791;50.876;4.342;2023-03-14T10:04:46;9.77;;;5.93;;
17347;SDS011;8791;50.876;4.342;2023-03-14T10:07:14;12.63;;;3.60;;
17347;SDS011;8791;50.876;4.342;2023-03-14T10:09:44;4.23;;;2.97;;
17347;SDS011;8791;50.876;4.342;2023-03-14T10:12:15;9.17;;;3.03;;
17347;SDS011;8791;50.876;4.342;2023-03-14T10:14:47;6.03;;;2.83;;
17347;SDS011;8791;50.876;4.342;2023-03-14T10:17:15;13.70;;;2.60;;
17347;SDS011;8791;50.876;4.342;2023-03-14T10:19:53;10.53;;;4.00;;
17347;SDS011;8791;50.876;4.342;2023-03-14T10:22:23;7.03;;;2.63;;
17347;SDS011;8791;50.876;4.342;2023-03-14T10:24:53;7.73;;;2.53;;
17347;SDS011;8791;50.876;4.342;2023-03-14T10:27:27;7.30;;;3.10;;
17347;SDS011;8791;50.876;4.342;2023-03-14T10:29:55;10.50;;;2.53;;
17347;SDS011;8791;50.876;4.342;2023-03-14T10:32:27;7.70;;;2.60;;
17347;SDS011;8791;50.876;4.342;2023-03-14T10:37:52;8.37;;;2.30;;
17347;SDS011;8791;50.876;4.342;2023-03-14T10:40:24;8.53;;;2.60;;
17347;SDS011;8791;50.876;4.342;2023-03-14T10:42:56;7.53;;;2.23;;
17347;SDS011;8791;50.876;4.342;2023-03-14T10:45:34;6.77;;;2.53;;
17347;SDS011;8791;50.876;4.342;2023-03-14T10:48:13;9.60;;;2.80;;
17347;SDS011;8791;50.876;4.342;2023-03-14T10:50:49;6.03;;;2.57;;
17347;SDS011;8791;50.876;4.342;2023-03-14T10:53:20;6.67;;;3.27;;
17347;SDS011;8791;50.876;4.342;2023-03-14T10:55:47;12.83;;;8.07;;
17347;SDS011;8791;50.876;4.342;2023-03-14T10:58:19;10.43;;;7.23;;
17347;SDS011;8791;50.876;4.342;2023-03-14T11:00:50;14.50;;;7.77;;
17347;SDS011;8791;50.876;4.342;2023-03-14T11:03:23;11.70;;;10.47;;
17347;SDS011;8791;50.876;4.342;2023-03-14T11:05:53;12.70;;;11.50;;
17347;SDS011;8791;50.876;4.342;2023-03-14T11:08:24;12.77;;;11.57;;
17347;SDS011;8791;50.876;4.342;2023-03-14T11:10:57;13.67;;;12.60;;
17347;SDS011;8791;50.876;4.342;2023-03-14T11:13:36;14.77;;;13.23;;
17347;SDS011;8791;50.876;4.342;2023-03-14T11:16:12;16.20;;;13.90;;
17347;SDS011;8791;50.876;4.342;2023-03-14T11:18:48;13.57;;;12.60;;
17347;SDS011;8791;50.876;4.342;2023-03-14T11:21:24;16.57;;;15.47;;
17347;SDS011;8791;50.876;4.342;2023-03-14T11:24:01;23.40;;;21.50;;
17347;SDS011;8791;50.876;4.342;2023-03-14T11:26:44;26.47;;;24.67;;
17347;SDS011;8791;50.876;4.342;2023-03-14T11:29:21;25.97;;;24.37;;
17347;SDS011;8791;50.876;4.342;2023-03-14T11:31:53;26.47;;;25.17;;
17347;SDS011;8791;50.876;4.342;2023-03-14T11:34:25;27.60;;;26.20;;
17347;SDS011;8791;50.876;4.342;2023-03-14T11:36:55;28.20;;;26.67;;
17347;SDS011;8791;50.876;4.342;2023-03-14T11:39:29;29.33;;;27.70;;
17347;SDS011;8791;50.876;4.342;2023-03-14T11:42:07;27.40;;;26.10;;
17347;SDS011;8791;50.876;4.342;2023-03-14T11:44:39;27.90;;;26.30;;
17347;SDS011;8791;50.876;4.342;2023-03-14T11:47:07;27.83;;;26.17;;
17347;SDS011;8791;50.876;4.342;2023-03-14T11:49:38;25.90;;;24.57;;
17347;SDS011;8791;50.876;4.342;2023-03-14T11:52:09;26.40;;;25.00;;
17347;SDS011;8791;50.876;4.342;2023-03-14T11:54:39;27.93;;;26.10;;
17347;SDS011;8791;50.876;4.342;2023-03-14T11:57:14;26.33;;;25.03;;
17347;SDS011;8791;50.876;4.342;2023-03-14T11:59:46;22.93;;;21.90;;
17347;SDS011;8791;50.876;4.342;2023-03-14T12:02:21;23.23;;;22.03;;
17347;SDS011;8791;50.876;4.342;2023-03-14T12:04:54;24.87;;;23.67;;
17347;SDS011;8791;50.876;4.342;2023-03-14T12:07:32;25.70;;;24.27;;
17347;SDS011;8791;50.876;4.342;2023-03-14T12:10:06;25.20;;;23.70;;
17347;SDS011;8791;50.876;4.342;2023-03-14T12:12:33;23.40;;;22.20;;
17347;SDS011;8791;50.876;4.342;2023-03-14T12:15:02;23.37;;;22.20;;
17347;SDS011;8791;50.876;4.342;2023-03-14T12:17:34;24.70;;;23.53;;
17347;SDS011;8791;50.876;4.342;2023-03-14T12:20:04;22.90;;;21.60;;
17347;SDS011;8791;50.876;4.342;2023-03-14T12:22:41;22.67;;;21.47;;
17347;SDS011;8791;50.876;4.342;2023-03-14T12:25:14;22.43;;;21.23;;
17347;SDS011;8791;50.876;4.342;2023-03-14T12:27:44;22.57;;;21.60;;
17347;SDS011;8791;50.876;4.342;2023-03-14T12:30:30;21.80;;;20.43;;
17347;SDS011;8791;50.876;4.342;2023-03-14T12:33:20;21.97;;;20.67;;
17347;SDS011;8791;50.876;4.342;2023-03-14T12:35:57;22.17;;;21.07;;
17347;SDS011;8791;50.876;4.342;2023-03-14T12:38:37;21.43;;;20.30;;
17347;SDS011;8791;50.876;4.342;2023-03-14T12:41:23;23.50;;;22.10;;
17347;SDS011;8791;50.876;4.342;2023-03-14T12:43:53;25.10;;;23.40;;
17347;SDS011;8791;50.876;4.342;2023-03-14T12:46:23;25.20;;;23.80;;
17347;SDS011;8791;50.876;4.342;2023-03-14T12:48:54;25.83;;;24.17;;
17347;SDS011;8791;50.876;4.342;2023-03-14T12:51:27;24.10;;;23.00;;
17347;SDS011;8791;50.876;4.342;2023-03-14T12:54:21;23.80;;;22.70;;
17347;SDS011;8791;50.876;4.342;2023-03-14T12:59:52;24.47;;;23.00;;
17347;SDS011;8791;50.876;4.342;2023-03-14T13:02:27;24.30;;;23.03;;
17347;SDS011;8791;50.876;4.342;2023-03-14T13:05:02;24.87;;;23.30;;
17347;SDS011;8791;50.876;4.342;2023-03-14T13:07:32;26.17;;;24.13;;
17347;SDS011;8791;50.876;4.342;2023-03-14T13:10:02;25.07;;;23.47;;
17347;SDS011;8791;50.876;4.342;2023-03-14T13:12:36;24.33;;;22.93;;
17347;SDS011;8791;50.876;4.342;2023-03-14T13:15:16;25.50;;;23.73;;
17347;SDS011;8791;50.876;4.342;2023-03-14T13:17:48;24.27;;;22.30;;
17347;SDS011;8791;50.876;4.342;2023-03-14T13:20:18;25.53;;;23.03;;
17347;SDS011;8791;50.876;4.342;2023-03-14T13:22:49;24.50;;;22.73;;
17347;SDS011;8791;50.876;4.342;2023-03-14T13:25:16;23.90;;;21.93;;
17347;SDS011;8791;50.876;4.342;2023-03-14T13:27:46;25.20;;;21.40;;
17347;SDS011;8791;50.876;4.342;2023-03-14T13:30:23;26.73;;;24.40;;
17347;SDS011;8791;50.876;4.342;2023-03-14T13:32:53;24.57;;;22.57;;
17347;SDS011;8791;50.876;4.342;2023-03-14T13:35:22;25.33;;;22.87;;
17347;SDS011;8791;50.876;4.342;2023-03-14T13:37:54;24.57;;;21.60;;
17347;SDS011;8791;50.876;4.342;2023-03-14T13:40:30;22.53;;;20.57;;
17347;SDS011;8791;50.876;4.342;2023-03-14T13:43:02;26.30;;;20.47;;
17347;SDS011;8791;50.876;4.342;2023-03-14T13:45:31;26.80;;;21.57;;
17347;SDS011;8791;50.876;4.342;2023-03-14T13:48:09;23.47;;;19.43;;
17347;SDS011;8791;50.876;4.342;2023-03-14T13:50:40;26.53;;;18.50;;
17347;SDS011;8791;50.876;4.342;2023-03-14T13:53:11;23.53;;;18.73;;
17347;SDS011;8791;50.876;4.342;2023-03-14T13:55:38;25.50;;;18.40;;
17347;SDS011;8791;50.876;4.342;2023-03-14T13:58:05;30.37;;;22.13;;
17347;SDS011;8791;50.876;4.342;2023-03-14T14:00:37;29.03;;;21.57;;
17347;SDS011;8791;50.876;4.342;2023-03-14T14:03:04;24.03;;;11.90;;
17347;SDS011;8791;50.876;4.342;2023-03-14T14:05:39;28.10;;;10.90;;
17347;SDS011;8791;50.876;4.342;2023-03-14T14:08:06;12.57;;;8.67;;
17347;SDS011;8791;50.876;4.342;2023-03-14T14:10:37;13.20;;;3.73;;
17347;SDS011;8791;50.876;4.342;2023-03-14T14:13:04;23.37;;;3.03;;
17347;SDS011;8791;50.876;4.342;2023-03-14T14:15:37;8.30;;;2.20;;
17347;SDS011;8791;50.876;4.342;2023-03-14T14:18:08;9.63;;;1.90;;
17347;SDS011;8791;50.876;4.342;2023-03-14T14:20:40;13.17;;;2.03;;
17347;SDS011;8791;50.876;4.342;2023-03-14T14:23:09;11.77;;;1.93;;
17347;SDS011;8791;50.876;4.342;2023-03-14T14:25:38;7.57;;;1.87;;
17347;SDS011;8791;50.876;4.342;2023-03-14T14:28:15;13.93;;;2.60;;
17347;SDS011;8791;50.876;4.342;2023-03-14T14:30:43;11.57;;;1.87;;
17347;SDS011;8791;50.876;4.342;2023-03-14T14:33:11;9.27;;;2.17;;
17347;SDS011;8791;50.876;4.342;2023-03-14T14:35:50;9.67;;;1.97;;
17347;SDS011;8791;50.876;4.342;2023-03-14T14:38:18;10.77;;;1.73;;
17347;SDS011;8791;50.876;4.342;2023-03-14T14:40:48;11.60;;;1.50;;
17347;SDS011;8791;50.876;4.342;2023-03-14T14:43:17;6.23;;;1.73;;
17347;SDS011;8791;50.876;4.342;2023-03-14T14:45:48;5.77;;;1.33;;
17347;SDS011;8791;50.876;4.342;2023-03-14T14:48:17;10.07;;;1.30;;
17347;SDS011;8791;50.876;4.342;2023-03-14T14:50:54;13.17;;;1.37;;
17347;SDS011;8791;50.876;4.342;2023-03-14T14:53:26;4.70;;;1.60;;
17347;SDS011;8791;50.876;4.342;2023-03-14T14:55:56;2.10;;;0.80;;
17347;SDS011;8791;50.876;4.342;2023-03-14T14:58:25;1.97;;;0.80;;
17347;SDS011;8791;50.876;4.342;2023-03-14T15:00:54;0.97;;;0.80;;
17347;SDS011;8791;50.876;4.342;2023-03-14T15:03:26;2.67;;;0.80;;
17347;SDS011;8791;50.876;4.342;2023-03-14T15:05:57;2.20;;;0.57;;